createdAt,value
2022-08-22T00:00:38.593Z,98.27
2022-08-22T00:01:38.627Z,98.18
2022-08-22T00:02:38.700Z,97.87
2022-08-22T00:02:43.553Z,96.19
2022-08-22T00:02:44.477Z,96.07
2022-08-22T00:02:48.855Z,93.46
2022-08-22T00:03:04.185Z,89.85
2022-08-22T00:03:08.203Z,94.67
2022-08-22T00:03:11.262Z,95.48
2022-08-22T00:03:12.013Z,89.01
2022-08-22T00:03:15.953Z,97.83
2022-08-22T00:03:38.556Z,97.77
2022-08-22T00:04:38.548Z,97.46
2022-08-22T00:05:38.537Z,97.46
2022-08-22T00:06:38.528Z,97.77
2022-08-22T00:07:38.549Z,97.97
2022-08-22T00:08:38.828Z,98.11
2022-08-22T00:09:38.497Z,98.18
2022-08-22T00:10:38.489Z,98.07
2022-08-22T00:11:38.476Z,97.61
2022-08-22T00:12:38.470Z,97.61
2022-08-22T00:13:38.488Z,97.50
2022-08-22T00:14:38.448Z,96.89
2022-08-22T00:15:43.622Z,97.09
2022-08-22T00:16:39.421Z,97.86
2022-08-22T00:17:38.409Z,98.06
2022-08-22T00:18:38.400Z,98.41
2022-08-22T00:19:38.421Z,99.99
2022-08-22T00:20:38.382Z,99.99
2022-08-22T00:21:38.371Z,99.99
2022-08-22T00:22:38.364Z,99.99
2022-08-22T00:23:38.351Z,99.99
2022-08-22T00:24:38.341Z,99.99
2022-08-22T00:25:38.359Z,99.99
2022-08-22T00:26:41.152Z,99.99
2022-08-22T00:27:45.190Z,99.99
2022-08-22T00:28:39.293Z,99.99
2022-08-22T00:29:38.292Z,99.99
2022-08-22T00:30:38.277Z,99.95
2022-08-22T00:31:38.974Z,99.95
2022-08-22T00:32:38.256Z,99.99
2022-08-22T00:33:38.243Z,99.99
2022-08-22T00:34:38.236Z,99.99
2022-08-22T00:35:40.577Z,99.99
2022-08-22T00:36:39.234Z,99.99
2022-08-22T00:37:38.197Z,99.99
2022-08-22T00:38:38.196Z,99.99
2022-08-22T00:39:38.198Z,99.95
2022-08-22T00:40:38.168Z,99.74
2022-08-22T00:41:38.163Z,99.74
2022-08-22T00:42:38.178Z,99.54
2022-08-22T00:43:38.137Z,99.33
2022-08-22T00:44:38.128Z,99.33
2022-08-22T00:45:38.116Z,99.33
2022-08-22T00:46:38.109Z,99.02
2022-08-22T00:47:38.096Z,98.93
2022-08-22T00:48:38.119Z,99.99
2022-08-22T00:49:38.071Z,99.99
2022-08-22T00:50:38.066Z,99.84
2022-08-22T00:51:38.049Z,99.52
2022-08-22T00:52:38.042Z,99.78
2022-08-22T00:53:38.043Z,99.57
2022-08-22T00:54:38.049Z,99.99
2022-08-22T00:55:38.013Z,99.99
2022-08-22T00:56:38.011Z,99.99
2022-08-22T00:57:37.992Z,99.99
2022-08-22T00:58:37.983Z,99.99
2022-08-22T00:59:37.972Z,99.99
2022-08-22T01:00:37.990Z,99.99
2022-08-22T01:01:38.018Z,99.99
2022-08-22T01:02:37.943Z,99.99
2022-08-22T01:03:37.931Z,99.99
2022-08-22T01:04:37.931Z,99.99
2022-08-22T01:05:37.914Z,99.99
2022-08-22T01:06:37.933Z,99.99
2022-08-22T01:07:38.506Z,99.99
2022-08-22T01:08:37.882Z,99.99
2022-08-22T01:09:37.866Z,99.99
2022-08-22T01:10:37.866Z,99.99
2022-08-22T01:11:37.853Z,99.99
2022-08-22T01:12:37.880Z,99.99
2022-08-22T01:13:37.827Z,99.99
2022-08-22T01:14:37.826Z,99.99
2022-08-22T01:15:37.809Z,99.99
2022-08-22T01:16:37.797Z,99.99
2022-08-22T01:17:37.789Z,99.99
2022-08-22T01:18:37.807Z,99.99
2022-08-22T01:19:37.767Z,99.78
2022-08-22T01:20:37.771Z,99.57
2022-08-22T01:21:37.753Z,99.99
2022-08-22T01:22:37.738Z,99.99
2022-08-22T01:23:37.730Z,99.99
2022-08-22T01:24:37.751Z,99.99
2022-08-22T01:25:37.706Z,99.99
2022-08-22T01:26:37.708Z,99.99
2022-08-22T01:27:37.689Z,99.99
2022-08-22T01:28:37.681Z,99.99
2022-08-22T01:29:37.976Z,99.99
2022-08-22T01:30:37.693Z,99.98
2022-08-22T01:31:37.642Z,99.37
2022-08-22T01:32:37.643Z,98.65
2022-08-22T01:33:37.623Z,98.55
2022-08-22T01:34:37.622Z,98.90
2022-08-22T01:35:37.609Z,98.96
2022-08-22T01:36:37.635Z,99.11
2022-08-22T01:37:43.432Z,99.27
2022-08-22T01:38:38.581Z,99.01
2022-08-22T01:39:37.590Z,98.55
2022-08-22T01:40:37.562Z,98.04
2022-08-22T01:41:38.574Z,97.67
2022-08-22T01:42:37.544Z,97.57
2022-08-22T01:43:51.463Z,97.98
2022-08-22T01:44:38.529Z,97.98
2022-08-22T01:45:37.512Z,97.88
2022-08-22T01:46:37.496Z,98.08
2022-08-22T01:47:37.859Z,98.08
2022-08-22T01:48:37.482Z,97.27
2022-08-22T01:49:37.468Z,97.00
2022-08-22T01:50:37.464Z,97.21
2022-08-22T01:51:37.450Z,98.13
2022-08-22T01:52:37.431Z,98.24
2022-08-22T01:53:37.464Z,98.54
2022-08-22T01:54:37.418Z,98.28
2022-08-22T01:55:37.407Z,98.33
2022-08-22T01:56:37.400Z,98.49
2022-08-22T01:57:37.388Z,97.92
2022-08-22T01:58:37.370Z,96.44
2022-08-22T01:59:42.164Z,96.17
2022-08-22T02:00:38.350Z,97.34
2022-08-22T02:01:37.347Z,98.93
2022-08-22T02:02:37.331Z,99.65
2022-08-22T02:03:37.326Z,99.99
2022-08-22T02:04:37.311Z,99.99
2022-08-22T02:05:37.358Z,99.50
2022-08-22T02:06:37.289Z,98.93
2022-08-22T02:07:37.282Z,99.18
2022-08-22T02:08:37.270Z,99.99
2022-08-22T02:09:37.271Z,99.99
2022-08-22T02:10:37.251Z,99.99
2022-08-22T02:11:37.280Z,99.99
2022-08-22T02:12:37.229Z,99.99
2022-08-22T02:13:37.222Z,99.99
2022-08-22T02:14:37.211Z,99.99
2022-08-22T02:15:37.202Z,99.99
2022-08-22T02:16:37.184Z,99.99
2022-08-22T02:17:37.204Z,99.99
2022-08-22T02:18:37.165Z,99.99
2022-08-22T02:19:37.167Z,99.99
2022-08-22T02:20:37.145Z,99.99
2022-08-22T02:21:37.135Z,99.65
2022-08-22T02:22:37.121Z,99.85
2022-08-22T02:23:38.142Z,99.99
2022-08-22T02:24:37.108Z,99.99
2022-08-22T02:25:37.097Z,99.99
2022-08-22T02:26:37.086Z,99.99
2022-08-22T02:27:37.078Z,99.99
2022-08-22T02:28:37.065Z,99.99
2022-08-22T02:29:38.093Z,99.69
2022-08-22T02:30:37.046Z,99.99
2022-08-22T02:31:37.028Z,99.99
2022-08-22T02:32:37.018Z,99.99
2022-08-22T02:33:37.014Z,99.99
2022-08-22T02:34:36.998Z,99.99
2022-08-22T02:35:37.017Z,99.99
2022-08-22T02:36:36.976Z,99.99
2022-08-22T02:37:36.970Z,99.99
2022-08-22T02:38:36.958Z,99.99
2022-08-22T02:39:37.015Z,99.99
2022-08-22T02:40:36.941Z,99.99
2022-08-22T02:41:36.950Z,99.99
2022-08-22T02:42:36.920Z,99.99
2022-08-22T02:43:36.927Z,99.99
2022-08-22T02:44:36.892Z,99.99
2022-08-22T02:45:36.889Z,99.99
2022-08-22T02:46:36.883Z,99.99
2022-08-22T02:47:36.891Z,99.99
2022-08-22T02:48:36.851Z,99.99
2022-08-22T02:49:43.752Z,99.99
2022-08-22T02:50:37.834Z,99.99
2022-08-22T02:51:36.829Z,99.99
2022-08-22T02:52:36.813Z,99.99
2022-08-22T02:53:36.833Z,99.99
2022-08-22T02:54:36.792Z,99.99
2022-08-22T02:55:36.786Z,99.99
2022-08-22T02:56:36.775Z,99.99
2022-08-22T02:57:39.507Z,99.99
2022-08-22T02:58:36.751Z,99.99
2022-08-22T02:59:36.773Z,99.99
2022-08-22T03:00:36.819Z,99.99
2022-08-22T03:01:36.731Z,99.99
2022-08-22T03:02:36.706Z,99.99
2022-08-22T03:03:36.695Z,99.99
2022-08-22T03:04:36.686Z,99.99
2022-08-22T03:05:36.707Z,99.99
2022-08-22T03:06:36.667Z,99.99
2022-08-22T03:07:36.659Z,99.99
2022-08-22T03:08:36.656Z,99.99
2022-08-22T03:09:36.636Z,99.99
2022-08-22T03:10:36.635Z,99.99
2022-08-22T03:11:36.656Z,99.99
2022-08-22T03:12:36.599Z,99.99
2022-08-22T03:13:36.557Z,99.99
2022-08-22T03:14:36.529Z,99.99
2022-08-22T03:15:36.526Z,99.99
2022-08-22T03:16:36.517Z,99.75
2022-08-22T03:17:36.538Z,99.75
2022-08-22T03:18:36.499Z,99.85
2022-08-22T03:19:36.487Z,99.95
2022-08-22T03:20:36.471Z,99.99
2022-08-22T03:21:36.465Z,99.95
2022-08-22T03:22:36.452Z,99.75
2022-08-22T03:23:36.462Z,99.60
2022-08-22T03:24:36.421Z,99.60
2022-08-22T03:25:36.422Z,99.40
2022-08-22T03:26:36.411Z,99.13
2022-08-22T03:27:36.401Z,98.32
2022-08-22T03:28:36.381Z,98.83
2022-08-22T03:29:36.411Z,98.93
2022-08-22T03:30:36.373Z,98.83
2022-08-22T03:31:36.361Z,98.83
2022-08-22T03:32:36.341Z,98.87
2022-08-22T03:33:36.340Z,98.67
2022-08-22T03:34:36.326Z,98.05
2022-08-22T03:35:36.359Z,96.41
2022-08-22T03:36:36.303Z,97.73
2022-08-22T03:37:36.295Z,99.11
2022-08-22T03:38:36.284Z,99.99
2022-08-22T03:39:36.273Z,99.99
2022-08-22T03:40:36.264Z,99.99
2022-08-22T03:41:36.286Z,99.99
2022-08-22T03:42:36.241Z,99.99
2022-08-22T03:43:36.245Z,99.99
2022-08-22T03:44:36.229Z,99.99
2022-08-22T03:45:36.215Z,99.99
2022-08-22T03:46:36.209Z,99.99
2022-08-22T03:47:36.234Z,99.99
2022-08-22T03:48:36.188Z,99.99
2022-08-22T03:49:36.177Z,99.99
2022-08-22T03:50:36.161Z,99.99
2022-08-22T03:51:36.157Z,99.99
2022-08-22T03:52:36.147Z,99.99
2022-08-22T03:53:36.166Z,99.99
2022-08-22T03:54:36.117Z,99.99
2022-08-22T03:55:36.117Z,99.99
2022-08-22T03:56:36.099Z,99.98
2022-08-22T03:57:36.099Z,99.99
2022-08-22T03:58:36.086Z,99.99
2022-08-22T03:59:36.097Z,99.99
2022-08-22T04:00:37.092Z,99.99
2022-08-22T04:01:36.050Z,99.99
2022-08-22T04:02:43.038Z,99.99
2022-08-22T04:03:37.039Z,99.99
2022-08-22T04:04:36.021Z,99.99
2022-08-22T04:05:36.039Z,99.99
2022-08-22T04:06:36.009Z,99.99
2022-08-22T04:07:36.002Z,99.99
2022-08-22T04:08:35.980Z,99.99
2022-08-22T04:09:37.053Z,99.83
2022-08-22T04:10:35.967Z,98.50
2022-08-22T04:11:35.992Z,97.92
2022-08-22T04:12:35.947Z,97.82
2022-08-22T04:13:35.933Z,97.77
2022-08-22T04:14:35.920Z,98.33
2022-08-22T04:15:35.914Z,98.79
2022-08-22T04:16:35.908Z,99.99
2022-08-22T04:17:35.948Z,99.99
2022-08-22T04:18:35.874Z,99.99
2022-08-22T04:19:35.871Z,99.99
2022-08-22T04:20:35.868Z,99.99
2022-08-22T04:21:35.856Z,99.99
2022-08-22T04:22:35.837Z,99.99
2022-08-22T04:23:35.859Z,99.99
2022-08-22T04:24:35.815Z,99.99
2022-08-22T04:25:35.805Z,99.99
2022-08-22T04:26:35.792Z,99.99
2022-08-22T04:27:35.795Z,99.99
2022-08-22T04:28:35.766Z,99.99
2022-08-22T04:29:35.797Z,99.99
2022-08-22T04:30:35.758Z,99.99
2022-08-22T04:31:35.747Z,99.99
2022-08-22T04:32:35.737Z,99.99
2022-08-22T04:33:35.725Z,99.99
2022-08-22T04:34:35.708Z,99.99
2022-08-22T04:35:35.727Z,99.99
2022-08-22T04:36:35.688Z,99.99
2022-08-22T04:37:35.689Z,99.99
2022-08-22T04:38:35.669Z,99.99
2022-08-22T04:39:35.672Z,99.99
2022-08-22T04:40:35.650Z,99.99
2022-08-22T04:41:35.675Z,99.99
2022-08-22T04:42:35.631Z,99.99
2022-08-22T04:43:35.626Z,99.99
2022-08-22T04:44:35.611Z,99.99
2022-08-22T04:45:35.600Z,99.99
2022-08-22T04:46:37.115Z,99.99
2022-08-22T04:47:35.619Z,99.99
2022-08-22T04:48:35.571Z,99.99
2022-08-22T04:49:35.560Z,99.99
2022-08-22T04:50:37.249Z,99.99
2022-08-22T04:51:35.542Z,99.99
2022-08-22T04:52:35.531Z,99.99
2022-08-22T04:53:35.555Z,99.99
2022-08-22T04:54:35.510Z,99.99
2022-08-22T04:55:35.503Z,99.99
2022-08-22T04:56:35.494Z,99.99
2022-08-22T04:57:35.481Z,99.99
2022-08-22T04:58:35.465Z,99.99
2022-08-22T04:59:35.493Z,99.99
2022-08-22T05:00:35.444Z,99.99
2022-08-22T05:01:35.472Z,99.99
2022-08-22T05:02:35.430Z,99.99
2022-08-22T05:03:35.414Z,99.99
2022-08-22T05:04:35.404Z,99.99
2022-08-22T05:05:35.424Z,99.99
2022-08-22T05:06:35.387Z,99.99
2022-08-22T05:07:36.088Z,99.99
2022-08-22T05:08:35.364Z,99.99
2022-08-22T05:09:35.355Z,99.99
2022-08-22T05:10:35.342Z,99.99
2022-08-22T05:11:35.373Z,99.99
2022-08-22T05:12:35.327Z,99.99
2022-08-22T05:13:35.317Z,99.99
2022-08-22T05:14:35.305Z,99.99
2022-08-22T05:15:35.294Z,99.99
2022-08-22T05:16:35.278Z,99.99
2022-08-22T05:17:35.295Z,99.99
2022-08-22T05:18:35.258Z,99.99
2022-08-22T05:19:35.256Z,99.99
2022-08-22T05:20:35.238Z,98.65
2022-08-22T05:21:35.237Z,97.63
2022-08-22T05:22:35.220Z,96.87
2022-08-22T05:23:35.247Z,95.50
2022-08-22T05:24:35.198Z,93.71
2022-08-22T05:25:36.374Z,92.90
2022-08-22T05:26:35.184Z,91.53
2022-08-22T05:27:35.178Z,91.39
2022-08-22T05:28:35.149Z,89.86
2022-08-22T05:29:35.180Z,89.65
2022-08-22T05:30:35.141Z,90.01
2022-08-22T05:31:35.129Z,88.79
2022-08-22T05:32:35.120Z,89.71
2022-08-22T05:33:35.110Z,90.38
2022-08-22T05:34:35.092Z,89.57
2022-08-22T05:35:35.117Z,89.87
2022-08-22T05:36:35.075Z,89.67
2022-08-22T05:37:35.071Z,89.94
2022-08-22T05:38:35.052Z,91.16
2022-08-22T05:39:35.044Z,90.14
2022-08-22T05:40:35.035Z,90.64
2022-08-22T05:41:35.054Z,90.95
2022-08-22T05:42:35.013Z,90.85
2022-08-22T05:43:35.006Z,91.36
2022-08-22T05:44:34.994Z,90.95
2022-08-22T05:45:34.987Z,89.94
2022-08-22T05:46:34.974Z,90.40
2022-08-22T05:47:35.005Z,91.31
2022-08-22T05:48:34.955Z,90.81
2022-08-22T05:49:34.937Z,91.62
2022-08-22T05:50:34.927Z,92.07
2022-08-22T05:51:34.927Z,93.95
2022-08-22T05:52:34.909Z,94.26
2022-08-22T05:53:34.918Z,95.42
2022-08-22T05:54:34.889Z,95.83
2022-08-22T05:55:34.879Z,96.95
2022-08-22T05:56:34.867Z,97.97
2022-08-22T05:57:34.858Z,97.46
2022-08-22T05:58:34.847Z,97.46
2022-08-22T05:59:34.869Z,96.75
2022-08-22T06:00:34.828Z,96.34
2022-08-22T06:01:34.865Z,95.32
2022-08-22T06:02:34.811Z,95.73
2022-08-22T06:03:34.792Z,95.78
2022-08-22T06:04:34.781Z,96.30
2022-08-22T06:05:34.802Z,95.48
2022-08-22T06:06:34.762Z,95.37
2022-08-22T06:07:34.757Z,94.92
2022-08-22T06:08:34.749Z,95.33
2022-08-22T06:09:35.568Z,95.74
2022-08-22T06:10:34.723Z,95.74
2022-08-22T06:11:34.733Z,95.84
2022-08-22T06:12:34.703Z,95.94
2022-08-22T06:13:34.691Z,95.69
2022-08-22T06:14:34.706Z,95.59
2022-08-22T06:15:34.665Z,95.08
2022-08-22T06:16:34.670Z,94.27
2022-08-22T06:17:34.683Z,93.92
2022-08-22T06:18:34.657Z,93.31
2022-08-22T06:19:34.629Z,94.08
2022-08-22T06:20:34.615Z,93.67
2022-08-22T06:21:39.215Z,92.45
2022-08-22T06:22:35.627Z,93.06
2022-08-22T06:23:34.587Z,93.06
2022-08-22T06:24:34.586Z,93.32
2022-08-22T06:25:34.573Z,92.82
2022-08-22T06:26:34.560Z,92.51
2022-08-22T06:27:34.548Z,92.10
2022-08-22T06:28:34.578Z,92.41
2022-08-22T06:29:34.522Z,92.61
2022-08-22T06:30:34.518Z,93.12
2022-08-22T06:31:34.498Z,93.12
2022-08-22T06:32:59.351Z,92.71
2022-08-22T06:33:35.517Z,92.30
2022-08-22T06:34:34.472Z,91.29
2022-08-22T06:35:34.461Z,92.16
2022-08-22T06:36:34.455Z,92.16
2022-08-22T06:37:34.443Z,92.16
2022-08-22T06:38:34.432Z,91.05
2022-08-22T06:39:34.442Z,91.41
2022-08-22T06:40:34.413Z,91.05
2022-08-22T06:41:34.400Z,91.91
2022-08-22T06:42:34.382Z,90.19
2022-08-22T06:43:34.383Z,90.70
2022-08-22T06:44:34.373Z,91.35
2022-08-22T06:45:34.381Z,92.32
2022-08-22T06:46:34.352Z,91.91
2022-08-22T06:47:34.341Z,92.07
2022-08-22T06:48:34.335Z,91.77
2022-08-22T06:49:34.318Z,90.71
2022-08-22T06:50:34.314Z,89.59
2022-08-22T06:51:34.326Z,89.80
2022-08-22T06:52:34.296Z,89.43
2022-08-22T06:53:34.277Z,87.61
2022-08-22T06:54:34.584Z,88.73
2022-08-22T06:55:34.267Z,91.97
2022-08-22T06:56:34.257Z,90.61
2022-08-22T06:57:34.265Z,91.38
2022-08-22T06:58:34.475Z,91.17
2022-08-22T06:59:34.217Z,89.92
2022-08-22T07:00:34.211Z,87.95
2022-08-22T07:01:34.209Z,88.76
2022-08-22T07:02:34.191Z,86.63
2022-08-22T07:03:34.200Z,86.19
2022-08-22T07:04:34.159Z,86.08
2022-08-22T07:05:34.151Z,86.55
2022-08-22T07:06:34.149Z,83.25
2022-08-22T07:07:34.131Z,86.49
2022-08-22T07:08:38.865Z,87.74
2022-08-22T07:09:35.132Z,88.51
2022-08-22T07:10:34.102Z,87.81
2022-08-22T07:11:34.090Z,87.60
2022-08-22T07:12:34.088Z,86.19
2022-08-22T07:13:34.071Z,86.43
2022-08-22T07:14:34.067Z,84.81
2022-08-22T07:15:34.083Z,87.45
2022-08-22T07:16:34.044Z,87.51
2022-08-22T07:17:35.945Z,88.48
2022-08-22T07:18:35.022Z,89.48
2022-08-22T07:19:34.006Z,87.32
2022-08-22T07:20:33.996Z,87.99
2022-08-22T07:21:36.205Z,82.99
2022-08-22T07:22:33.994Z,81.17
2022-08-22T07:23:33.968Z,84.51
2022-08-22T07:24:33.966Z,85.31
2022-08-22T07:25:33.957Z,84.87
2022-08-22T07:26:33.938Z,83.42
2022-08-22T07:27:33.948Z,85.50
2022-08-22T07:28:37.022Z,83.24
2022-08-22T07:29:34.898Z,79.14
2022-08-22T07:30:33.891Z,83.44
2022-08-22T07:31:33.893Z,82.13
2022-08-22T07:32:33.880Z,82.29
2022-08-22T07:33:33.892Z,81.59
2022-08-22T07:34:33.858Z,80.94
2022-08-22T07:35:33.842Z,83.12
2022-08-22T07:36:33.831Z,78.59
2022-08-22T07:37:33.821Z,78.89
2022-08-22T07:38:33.813Z,75.36
2022-08-22T07:39:33.834Z,73.79
2022-08-22T07:40:33.791Z,82.56
2022-08-22T07:41:33.774Z,72.38
2022-08-22T07:42:33.766Z,72.24
2022-08-22T07:43:33.755Z,80.11
2022-08-22T07:44:33.755Z,82.09
2022-08-22T07:45:33.773Z,73.92
2022-08-22T07:46:33.736Z,77.55
2022-08-22T07:47:33.736Z,77.04
2022-08-22T07:48:34.001Z,72.41
2022-08-22T07:49:33.693Z,69.38
2022-08-22T07:50:33.695Z,73.62
2022-08-22T07:51:33.701Z,71.53
2022-08-22T07:52:33.669Z,79.91
2022-08-22T07:53:33.659Z,81.75
2022-08-22T07:54:33.647Z,80.60
2022-08-22T07:55:33.640Z,79.76
2022-08-22T07:56:34.654Z,81.90
2022-08-22T07:57:33.621Z,80.15
2022-08-22T07:58:33.609Z,77.29
2022-08-22T07:59:33.587Z,74.44
2022-08-22T08:00:33.590Z,72.71
2022-08-22T08:01:33.579Z,71.47
2022-08-22T08:02:33.589Z,73.44
2022-08-22T08:03:33.549Z,72.60
2022-08-22T08:04:38.074Z,69.89
2022-08-22T08:05:34.523Z,70.86
2022-08-22T08:06:33.523Z,70.66
2022-08-22T08:07:33.513Z,70.23
2022-08-22T08:08:33.531Z,67.42
2022-08-22T08:09:33.486Z,69.02
2022-08-22T08:10:33.475Z,69.39
2022-08-22T08:11:33.466Z,71.59
2022-08-22T08:12:33.464Z,70.66
2022-08-22T08:13:33.446Z,68.29
2022-08-22T08:14:33.465Z,67.05
2022-08-22T08:15:33.426Z,61.81
2022-08-22T08:16:33.417Z,68.22
2022-08-22T08:17:33.411Z,72.80
2022-08-22T08:18:33.405Z,68.89
2022-08-22T08:19:33.378Z,71.93
2022-08-22T08:20:33.398Z,71.90
2022-08-22T08:21:33.360Z,73.80
2022-08-22T08:22:33.358Z,71.46
2022-08-22T08:23:35.825Z,69.53
2022-08-22T08:24:37.630Z,61.17
2022-08-22T08:25:34.361Z,69.69
2022-08-22T08:26:33.311Z,69.86
2022-08-22T08:27:33.312Z,69.35
2022-08-22T08:28:33.291Z,66.82
2022-08-22T08:29:33.275Z,66.32
2022-08-22T08:30:33.274Z,66.72
2022-08-22T08:31:33.285Z,65.39
2022-08-22T08:32:33.254Z,65.59
2022-08-22T08:33:33.226Z,67.29
2022-08-22T08:34:35.240Z,67.05
2022-08-22T08:35:42.167Z,68.36
2022-08-22T08:36:34.247Z,67.22
2022-08-22T08:37:33.204Z,66.49
2022-08-22T08:38:33.194Z,64.89
2022-08-22T08:39:35.363Z,62.26
2022-08-22T08:40:33.167Z,62.96
2022-08-22T08:41:33.158Z,64.46
2022-08-22T08:42:33.186Z,63.56
2022-08-22T08:43:33.136Z,60.29
2022-08-22T08:44:33.129Z,63.79
2022-08-22T08:45:33.119Z,67.26
2022-08-22T08:46:33.108Z,61.57
2022-08-22T08:47:33.097Z,65.76
2022-08-22T08:48:33.130Z,63.56
2022-08-22T08:49:33.698Z,62.04
2022-08-22T08:50:33.073Z,62.04
2022-08-22T08:51:33.052Z,64.70
2022-08-22T08:52:33.049Z,62.67
2022-08-22T08:53:33.032Z,60.15
2022-08-22T08:54:33.064Z,59.35
2022-08-22T08:55:33.023Z,58.06
2022-08-22T08:56:33.003Z,60.45
2022-08-22T08:57:32.986Z,58.92
2022-08-22T08:58:32.987Z,59.05
2022-08-22T08:59:32.974Z,57.26
2022-08-22T09:00:32.996Z,57.26
2022-08-22T09:01:33.083Z,57.35
2022-08-22T09:03:33.924Z,56.56
2022-08-22T09:04:32.927Z,55.43
2022-08-22T09:05:32.908Z,57.63
2022-08-22T09:06:32.928Z,56.43
2022-08-22T09:07:32.888Z,54.94
2022-08-22T09:08:32.879Z,56.73
2022-08-22T09:09:32.871Z,53.36
2022-08-22T09:10:32.862Z,57.71
2022-08-22T09:11:32.850Z,57.98
2022-08-22T09:12:32.887Z,57.18
2022-08-22T09:13:34.514Z,56.29
2022-08-22T09:14:33.819Z,55.19
2022-08-22T09:15:37.487Z,54.19
2022-08-22T09:16:33.793Z,56.91
2022-08-22T09:17:32.783Z,55.79
2022-08-22T09:18:32.804Z,53.19
2022-08-22T09:19:32.754Z,53.79
2022-08-22T09:20:32.752Z,53.99
2022-08-22T09:21:32.743Z,54.39
2022-08-22T09:22:33.375Z,54.69
2022-08-22T09:23:33.747Z,55.19
2022-08-22T09:24:32.716Z,54.22
2022-08-22T09:26:33.688Z,55.99
2022-08-22T09:27:32.678Z,53.49
2022-08-22T09:28:32.670Z,52.69
2022-08-22T09:29:32.678Z,54.19
2022-08-22T09:30:32.670Z,54.59
2022-08-22T09:31:32.911Z,53.36
2022-08-22T09:32:33.631Z,51.47
2022-08-22T09:33:32.610Z,52.87
2022-08-22T09:34:32.609Z,54.14
2022-08-22T09:35:32.630Z,49.00
2022-08-22T09:36:32.592Z,54.74
2022-08-22T09:37:32.572Z,54.84
2022-08-22T09:38:32.572Z,53.84
2022-08-22T09:39:32.554Z,56.84
2022-08-22T09:40:15.556Z,55.99
2022-08-22T09:40:32.544Z,55.71
2022-08-22T09:41:32.566Z,51.47
2022-08-22T09:42:32.524Z,55.92
2022-08-22T09:43:33.598Z,57.69
2022-08-22T09:44:32.505Z,55.87
2022-08-22T09:45:32.492Z,55.24
2022-08-22T09:46:36.801Z,55.32
2022-08-22T09:47:33.197Z,54.02
2022-08-22T09:48:32.466Z,53.69
2022-08-22T09:49:32.449Z,53.49
2022-08-22T09:50:32.447Z,53.31
2022-08-22T09:51:33.335Z,52.12
2022-08-22T09:52:36.794Z,52.12
2022-08-22T09:53:32.450Z,52.29
2022-08-22T09:54:32.688Z,50.49
2022-08-22T09:55:35.389Z,50.77
2022-08-22T09:56:32.383Z,50.07
2022-08-22T09:57:32.370Z,51.57
2022-08-22T09:58:32.373Z,47.78
2022-08-22T09:59:33.547Z,50.70
2022-08-22T10:00:32.343Z,50.77
2022-08-22T10:01:32.631Z,50.17
2022-08-22T10:02:32.334Z,50.37
2022-08-22T10:03:32.311Z,49.65
2022-08-22T10:04:32.304Z,51.05
2022-08-22T10:05:41.158Z,51.05
2022-08-22T10:06:33.287Z,51.62
2022-08-22T10:07:32.277Z,46.76
2022-08-22T10:08:32.264Z,50.40
2022-08-22T10:09:32.252Z,51.89
2022-08-22T10:10:32.254Z,51.57
2022-08-22T10:11:32.258Z,51.87
2022-08-22T10:12:36.426Z,52.87
2022-08-22T10:13:32.216Z,52.74
2022-08-22T10:14:32.211Z,51.95
2022-08-22T10:15:32.198Z,51.35
2022-08-22T10:16:32.189Z,51.95
2022-08-22T10:17:32.210Z,51.97
2022-08-22T10:18:32.161Z,50.42
2022-08-22T10:19:32.162Z,51.52
2022-08-22T10:20:32.148Z,50.82
2022-08-22T10:21:32.141Z,52.69
2022-08-22T10:22:32.129Z,52.59
2022-08-22T10:23:32.140Z,53.27
2022-08-22T10:24:32.102Z,53.29
2022-08-22T10:25:32.093Z,53.19
2022-08-22T10:26:36.511Z,53.59
2022-08-22T10:27:33.084Z,54.57
2022-08-22T10:28:32.066Z,54.27
2022-08-22T10:29:32.096Z,50.79
2022-08-22T10:30:32.043Z,50.74
2022-08-22T10:31:32.049Z,54.64
2022-08-22T10:32:32.030Z,54.94
2022-08-22T10:33:32.018Z,54.02
2022-08-22T10:34:32.009Z,54.69
2022-08-22T10:35:34.053Z,53.59
2022-08-22T10:36:31.987Z,50.79
2022-08-22T10:37:32.328Z,51.94
2022-08-22T10:38:31.967Z,55.84
2022-08-22T10:39:32.515Z,55.51
2022-08-22T10:40:31.948Z,54.94
2022-08-22T10:41:31.970Z,55.04
2022-08-22T10:42:35.121Z,55.11
2022-08-22T10:43:31.921Z,53.39
2022-08-22T10:44:31.904Z,50.49
2022-08-22T10:45:36.578Z,52.39
2022-08-22T10:46:32.921Z,53.36
2022-08-22T10:47:31.883Z,53.24
2022-08-22T10:48:31.869Z,52.02
2022-08-22T10:49:31.863Z,51.62
2022-08-22T10:50:31.917Z,52.19
2022-08-22T10:51:31.844Z,52.76
2022-08-22T10:52:31.889Z,51.77
2022-08-22T10:53:31.817Z,50.52
2022-08-22T10:54:31.814Z,52.32
2022-08-22T10:55:31.806Z,52.19
2022-08-22T10:56:31.787Z,53.46
2022-08-22T10:57:31.787Z,49.73
2022-08-22T10:58:31.789Z,52.62
2022-08-22T10:59:31.776Z,55.21
2022-08-22T11:00:31.805Z,54.36
2022-08-22T11:01:38.290Z,52.74
2022-08-22T11:02:32.721Z,51.05
2022-08-22T11:03:31.721Z,52.12
2022-08-22T11:04:31.744Z,50.10
2022-08-22T11:05:31.703Z,52.67
2022-08-22T11:06:31.689Z,50.60
2022-08-22T11:07:31.682Z,51.89
2022-08-22T11:08:34.804Z,51.27
2022-08-22T11:09:36.842Z,51.37
2022-08-22T11:10:32.674Z,50.15
2022-08-22T11:11:32.917Z,49.48
2022-08-22T11:12:35.025Z,49.68
2022-08-22T11:13:31.614Z,48.38
2022-08-22T11:14:31.604Z,49.58
2022-08-22T11:15:34.998Z,49.46
2022-08-22T11:16:31.607Z,49.85
2022-08-22T11:17:35.570Z,48.07
2022-08-22T11:18:32.558Z,49.88
2022-08-22T11:19:31.549Z,45.54
2022-08-22T11:20:31.541Z,50.20
2022-08-22T11:21:31.541Z,53.49
2022-08-22T11:22:31.544Z,54.66
2022-08-22T11:23:31.511Z,53.14
2022-08-22T11:24:36.177Z,52.32
2022-08-22T11:25:35.783Z,48.65
2022-08-22T11:26:35.792Z,49.15
2022-08-22T11:27:39.978Z,50.52
2022-08-22T11:28:32.449Z,49.90
2022-08-22T11:29:31.443Z,49.68
2022-08-22T11:30:31.433Z,48.66
2022-08-22T11:31:36.518Z,47.27
2022-08-22T11:32:31.415Z,48.04
2022-08-22T11:33:33.859Z,48.94
2022-08-22T11:34:32.386Z,49.04
2022-08-22T11:35:31.377Z,49.01
2022-08-22T11:36:31.482Z,45.61
2022-08-22T11:37:42.764Z,45.41
2022-08-22T11:38:32.959Z,46.20
2022-08-22T11:39:31.338Z,48.02
2022-08-22T11:40:31.392Z,48.34
2022-08-22T11:41:31.333Z,48.61
2022-08-22T11:42:31.310Z,48.61
2022-08-22T11:43:32.466Z,46.47
2022-08-22T11:44:31.337Z,46.37
2022-08-22T11:45:31.341Z,47.86
2022-08-22T11:46:31.271Z,47.77
2022-08-22T11:47:31.262Z,47.27
2022-08-22T11:48:31.243Z,45.22
2022-08-22T11:49:31.234Z,48.02
2022-08-22T11:50:31.262Z,51.87
2022-08-22T11:51:34.138Z,53.97
2022-08-22T11:52:31.204Z,52.64
2022-08-22T11:53:31.195Z,51.82
2022-08-22T11:54:31.502Z,49.20
2022-08-22T11:55:33.191Z,51.82
2022-08-22T11:56:31.195Z,49.82
2022-08-22T11:57:31.165Z,50.37
2022-08-22T11:58:31.144Z,51.59
2022-08-22T11:59:31.135Z,53.67
2022-08-22T12:00:31.125Z,53.64
2022-08-22T12:01:34.417Z,51.84
2022-08-22T12:02:31.261Z,54.92
2022-08-22T12:03:31.104Z,54.69
2022-08-22T12:04:31.089Z,48.02
2022-08-22T12:05:31.068Z,54.02
2022-08-22T12:06:31.063Z,52.84
2022-08-22T12:07:31.054Z,54.07
2022-08-22T12:08:31.051Z,56.74
2022-08-22T12:09:31.033Z,56.92
2022-08-22T12:10:31.843Z,56.07
2022-08-22T12:11:31.013Z,54.94
2022-08-22T12:12:32.944Z,54.41
2022-08-22T12:13:35.196Z,53.36
2022-08-22T12:14:30.995Z,50.47
2022-08-22T12:15:33.374Z,50.25
2022-08-22T12:16:30.953Z,50.82
2022-08-22T12:17:55.948Z,50.80
2022-08-22T12:18:31.934Z,49.40
2022-08-22T12:19:32.967Z,49.33
2022-08-22T12:20:30.930Z,51.12
2022-08-22T12:21:30.906Z,50.00
2022-08-22T12:22:30.889Z,47.14
2022-08-22T12:23:48.610Z,50.35
2022-08-22T12:24:31.860Z,52.34
2022-08-22T12:25:30.867Z,51.20
2022-08-22T12:26:30.885Z,53.49
2022-08-22T12:27:30.841Z,56.16
2022-08-22T12:28:30.831Z,54.54
2022-08-22T12:29:34.153Z,54.22
2022-08-22T12:30:31.807Z,53.49
2022-08-22T12:31:30.792Z,55.11
2022-08-22T12:32:30.805Z,55.34
2022-08-22T12:33:30.811Z,52.27
2022-08-22T12:34:30.765Z,56.37
2022-08-22T12:35:30.751Z,55.34
2022-08-22T12:36:30.743Z,50.04
2022-08-22T12:37:32.194Z,55.04
2022-08-22T12:38:32.798Z,52.64
2022-08-22T12:39:31.716Z,51.92
2022-08-22T12:40:31.012Z,47.05
2022-08-22T12:41:35.248Z,50.95
2022-08-22T12:42:30.676Z,53.22
2022-08-22T12:43:32.403Z,55.39
2022-08-22T12:44:30.935Z,53.07
2022-08-22T12:45:30.649Z,50.49